createdAt,value
2019-03-17T00:00:05.767Z,9.63
2019-03-17T00:05:14.981Z,11.53
2019-03-17T00:10:27.477Z,7.87
2019-03-17T00:15:39.075Z,6.07
2019-03-17T00:20:51.560Z,8.50
2019-03-17T00:26:06.693Z,6.20
2019-03-17T00:31:24.223Z,4.60
2019-03-17T00:36:30.822Z,6.13
2019-03-17T00:41:41.481Z,6.77
2019-03-17T00:46:53.219Z,6.83
2019-03-17T00:52:03.151Z,6.30
2019-03-17T00:57:13.423Z,6.03
2019-03-17T01:02:21.657Z,6.17
2019-03-17T01:07:32.330Z,7.87
2019-03-17T01:12:45.190Z,9.63
2019-03-17T01:17:55.777Z,10.33
2019-03-17T01:23:06.576Z,9.53
2019-03-17T01:28:16.486Z,3.83
2019-03-17T01:33:24.226Z,5.03
2019-03-17T01:38:35.950Z,9.87
2019-03-17T01:43:44.774Z,4.23
2019-03-17T01:48:58.251Z,6.20
2019-03-17T01:54:07.697Z,6.57
2019-03-17T01:59:16.135Z,5.17
2019-03-17T02:04:28.892Z,8.10
2019-03-17T02:09:42.271Z,7.33
2019-03-17T02:14:58.757Z,7.00
2019-03-17T02:20:07.852Z,7.70
2019-03-17T02:25:16.775Z,16.80
2019-03-17T02:30:29.328Z,9.83
2019-03-17T02:35:58.456Z,5.13
2019-03-17T02:41:09.229Z,6.83
2019-03-17T02:46:21.766Z,4.55
2019-03-17T02:51:29.984Z,5.40
2019-03-17T02:56:39.870Z,4.93
2019-03-17T03:01:54.569Z,5.63
2019-03-17T03:07:07.132Z,7.73
2019-03-17T03:12:18.275Z,8.67
2019-03-17T03:17:28.567Z,7.17
2019-03-17T03:22:36.779Z,7.43
2019-03-17T03:27:44.698Z,6.97
2019-03-17T03:33:01.736Z,9.93
2019-03-17T03:38:11.977Z,5.47
2019-03-17T03:43:22.106Z,8.85
2019-03-17T03:48:36.436Z,7.10
2019-03-17T03:53:45.671Z,8.20
2019-03-17T03:58:58.330Z,11.83
2019-03-17T04:04:14.119Z,8.80
2019-03-17T04:09:30.522Z,11.97
2019-03-17T04:14:42.984Z,8.90
2019-03-17T04:19:54.594Z,11.10
2019-03-17T04:25:05.289Z,5.97
2019-03-17T04:30:19.053Z,8.40
2019-03-17T04:35:31.561Z,12.30
2019-03-17T04:40:44.067Z,9.53
2019-03-17T04:45:52.231Z,11.17
2019-03-17T04:51:03.238Z,8.13
2019-03-17T04:56:14.373Z,5.30
2019-03-17T05:01:25.003Z,8.43
2019-03-17T05:06:37.425Z,10.33
2019-03-17T05:11:47.225Z,4.63
2019-03-17T05:17:03.487Z,2.70
2019-03-17T05:22:15.207Z,1.60
2019-03-17T05:27:25.007Z,1.77
2019-03-17T05:32:39.067Z,3.03
2019-03-17T05:37:51.555Z,1.80
2019-03-17T05:43:09.130Z,1.43
2019-03-17T05:48:23.460Z,1.60
2019-03-17T05:53:35.901Z,2.03
2019-03-17T05:58:45.646Z,1.07
2019-03-17T06:03:58.224Z,1.33
2019-03-17T06:09:09.891Z,1.83
2019-03-17T06:14:18.338Z,2.50
2019-03-17T06:19:29.989Z,0.97
2019-03-17T06:24:38.778Z,2.13
2019-03-17T06:29:49.386Z,1.40
2019-03-17T06:34:59.557Z,2.30
2019-03-17T06:40:12.964Z,1.27
2019-03-17T06:45:28.200Z,2.83
2019-03-17T06:50:37.896Z,1.13
2019-03-17T06:55:49.807Z,1.90
2019-03-17T07:01:02.295Z,1.67
2019-03-17T07:06:11.977Z,3.63
2019-03-17T07:11:24.549Z,2.08
2019-03-17T07:16:36.966Z,3.40
2019-03-17T07:21:51.215Z,5.13
2019-03-17T07:26:57.731Z,4.17
2019-03-17T07:32:09.469Z,2.53
2019-03-17T07:37:20.489Z,1.67
2019-03-17T07:42:32.949Z,3.83
2019-03-17T07:47:46.232Z,2.70
2019-03-17T07:52:59.126Z,3.13
2019-03-17T07:58:10.552Z,4.70
2019-03-17T08:03:19.401Z,2.85
2019-03-17T08:08:32.876Z,4.23
2019-03-17T08:13:41.684Z,6.90
2019-03-17T08:18:50.171Z,4.13
2019-03-17T08:23:58.614Z,1.70
2019-03-17T08:29:10.180Z,1.57
2019-03-17T08:34:20.826Z,2.10
2019-03-17T08:39:31.498Z,1.60
2019-03-17T08:44:43.910Z,4.53
2019-03-17T08:49:55.538Z,1.63
2019-03-17T08:55:05.477Z,2.40
2019-03-17T09:00:16.515Z,1.33
2019-03-17T09:05:26.212Z,2.73
2019-03-17T09:10:35.949Z,2.03
2019-03-17T09:15:50.185Z,1.23
2019-03-17T09:21:02.051Z,1.83
2019-03-17T09:26:12.077Z,2.43
2019-03-17T09:31:22.660Z,1.27
2019-03-17T09:36:34.135Z,0.90
2019-03-17T09:41:47.432Z,1.37
2019-03-17T09:47:06.309Z,2.60
2019-03-17T09:52:18.718Z,2.07
2019-03-17T09:57:29.725Z,2.70
2019-03-17T10:02:43.982Z,2.33
2019-03-17T10:07:58.244Z,0.97
2019-03-17T10:13:15.268Z,2.30
2019-03-17T10:18:29.192Z,3.27
2019-03-17T10:23:43.363Z,2.50
2019-03-17T10:28:52.292Z,4.77
2019-03-17T10:34:03.977Z,3.23
2019-03-17T10:39:17.355Z,3.72
2019-03-17T10:44:32.389Z,4.40
2019-03-17T10:49:43.086Z,3.80
2019-03-17T10:54:55.972Z,6.60
2019-03-17T11:00:08.421Z,2.03
2019-03-17T11:05:27.145Z,2.25
2019-03-17T11:10:39.698Z,2.23
2019-03-17T11:15:47.760Z,3.33
2019-03-17T11:21:01.170Z,3.67
2019-03-17T11:26:16.230Z,2.42
2019-03-17T11:31:30.473Z,3.60
2019-03-17T11:36:45.604Z,3.20
2019-03-17T11:41:57.205Z,2.83
2019-03-17T11:47:09.543Z,2.30
2019-03-17T11:52:20.179Z,2.30
2019-03-17T11:57:34.423Z,1.53
2019-03-17T12:02:47.914Z,2.77
2019-03-17T12:07:56.741Z,3.17
2019-03-17T12:13:12.004Z,3.80
2019-03-17T12:18:27.079Z,5.37
2019-03-17T12:23:44.643Z,2.03
2019-03-17T12:28:56.266Z,6.87
2019-03-17T12:34:11.466Z,3.80
2019-03-17T12:39:21.224Z,2.93
2019-03-17T12:44:30.117Z,2.00
2019-03-17T12:49:43.592Z,2.17
2019-03-17T12:54:53.540Z,2.00
2019-03-17T13:00:02.379Z,4.10
2019-03-17T13:05:12.335Z,4.20
2019-03-17T13:10:23.159Z,4.30
2019-03-17T13:15:36.757Z,5.37
2019-03-17T13:20:51.111Z,3.90
2019-03-17T13:26:03.567Z,5.65
2019-03-17T13:31:15.076Z,4.33
2019-03-17T13:36:29.641Z,3.83
2019-03-17T13:41:41.862Z,5.45
2019-03-17T13:46:50.849Z,4.95
2019-03-17T13:52:03.204Z,3.22
2019-03-17T13:57:12.227Z,4.00
2019-03-17T14:02:23.091Z,3.17
2019-03-17T14:07:31.974Z,4.10
2019-03-17T14:12:43.908Z,5.87
2019-03-17T14:17:55.494Z,1.93
2019-03-17T14:23:04.629Z,4.03
2019-03-17T14:28:20.231Z,2.70
2019-03-17T14:33:31.320Z,1.77
2019-03-17T14:38:41.063Z,3.58
2019-03-17T14:43:53.619Z,3.87
2019-03-17T14:49:04.424Z,4.13
2019-03-17T14:54:16.878Z,2.10
2019-03-17T14:59:28.964Z,3.02
2019-03-17T15:04:40.996Z,1.85
2019-03-17T15:09:50.276Z,3.37
2019-03-17T15:15:00.038Z,3.12
2019-03-17T15:20:14.470Z,3.80
2019-03-17T15:25:26.088Z,2.35
2019-03-17T15:30:39.498Z,2.40
2019-03-17T15:35:51.109Z,3.03
2019-03-17T15:41:20.718Z,3.57
2019-03-17T15:46:31.278Z,2.63
2019-03-17T15:51:45.595Z,4.33
2019-03-17T15:56:57.570Z,6.13
2019-03-17T16:02:10.021Z,4.27
2019-03-17T16:07:17.199Z,5.30
2019-03-17T16:12:28.954Z,4.97
2019-03-17T16:17:39.622Z,3.60
2019-03-17T16:22:50.244Z,2.20
2019-03-17T16:28:00.099Z,2.83
2019-03-17T16:33:11.436Z,2.60
2019-03-17T16:38:23.953Z,6.50
2019-03-17T16:43:38.244Z,2.33
2019-03-17T16:48:55.207Z,3.40
2019-03-17T16:54:07.177Z,2.70
2019-03-17T16:59:19.754Z,4.58
2019-03-17T17:04:28.291Z,4.50
2019-03-17T17:09:43.524Z,3.07
2019-03-17T17:14:56.941Z,5.87
2019-03-17T17:20:24.979Z,3.50
2019-03-17T17:25:39.216Z,5.23
2019-03-17T17:30:53.477Z,3.77
2019-03-17T17:36:05.229Z,4.80
2019-03-17T17:41:14.219Z,4.53
2019-03-17T17:46:27.683Z,1.95
2019-03-17T17:51:40.199Z,0.75
2019-03-17T17:56:51.740Z,1.23
2019-03-17T18:02:02.849Z,0.63
2019-03-17T18:07:10.725Z,1.07
2019-03-17T18:12:21.570Z,4.43
2019-03-17T18:17:33.870Z,3.03
2019-03-17T18:22:43.659Z,2.83
2019-03-17T18:27:53.381Z,1.33
2019-03-17T18:33:04.488Z,3.80
2019-03-17T18:38:15.167Z,4.67
2019-03-17T18:43:26.724Z,2.77
2019-03-17T18:48:44.094Z,2.17
2019-03-17T18:53:57.226Z,1.87
2019-03-17T18:59:07.879Z,3.60
2019-03-17T19:04:25.059Z,5.40
2019-03-17T19:10:32.747Z,3.37
2019-03-17T19:15:46.147Z,2.60
2019-03-17T19:20:56.883Z,2.60
2019-03-17T19:26:05.944Z,3.07
2019-03-17T19:31:14.151Z,4.17
2019-03-17T19:36:28.100Z,2.75
2019-03-17T19:41:38.774Z,1.53
2019-03-17T19:46:54.020Z,5.97
2019-03-17T19:52:09.029Z,2.07
2019-03-17T19:57:17.219Z,1.77
2019-03-17T20:02:25.470Z,2.20
2019-03-17T20:07:37.191Z,1.67
2019-03-17T20:12:47.822Z,3.23
2019-03-17T20:17:55.765Z,3.53
2019-03-17T20:23:05.507Z,3.33
2019-03-17T20:28:16.176Z,2.73
2019-03-17T20:33:24.291Z,1.77
2019-03-17T20:38:34.691Z,4.53
2019-03-17T20:43:43.071Z,1.40
2019-03-17T20:48:52.880Z,5.80
2019-03-17T20:54:05.393Z,2.97
2019-03-17T20:59:14.249Z,3.17
2019-03-17T21:04:22.409Z,3.90
2019-03-17T21:09:37.515Z,3.87
2019-03-17T21:14:47.884Z,2.40
2019-03-17T21:19:56.772Z,2.40
2019-03-17T21:25:05.849Z,5.83
2019-03-17T21:30:20.145Z,5.57
2019-03-17T21:35:29.078Z,2.60
2019-03-17T21:40:36.756Z,3.43
2019-03-17T21:45:51.012Z,4.23
2019-03-17T21:51:01.135Z,9.33
2019-03-17T21:56:16.402Z,3.30
2019-03-17T22:01:23.691Z,4.37
2019-03-17T22:06:35.347Z,5.20
2019-03-17T22:11:43.304Z,4.00
2019-03-17T22:16:53.897Z,5.53
2019-03-17T22:22:05.599Z,4.77
2019-03-17T22:27:19.047Z,5.22
2019-03-17T22:32:32.355Z,5.63
2019-03-17T22:37:42.113Z,5.87
2019-03-17T22:42:55.847Z,8.30
2019-03-17T22:48:07.919Z,4.73
2019-03-17T22:53:15.182Z,6.60
2019-03-17T22:58:29.412Z,4.27
2019-03-17T23:03:37.523Z,5.67
2019-03-17T23:08:51.692Z,4.83
2019-03-17T23:14:01.555Z,7.70
2019-03-17T23:19:09.651Z,9.37
2019-03-17T23:24:15.684Z,7.60
2019-03-17T23:29:29.956Z,6.03
2019-03-17T23:34:37.650Z,8.08
2019-03-17T23:39:52.174Z,7.53
2019-03-17T23:45:05.614Z,5.70
2019-03-17T23:50:17.817Z,5.67
2019-03-17T23:55:30.455Z,7.23
